sensor_id;sensor_type;location;lat;lon;timestamp;P1;durP1;ratioP1;P2;durP2;ratioP2
43413;SDS011;29013;49.676;8.606;2023-06-10T00:01:58;4.45;;;2.62;;
43413;SDS011;29013;49.676;8.606;2023-06-10T00:07:23;4.65;;;2.78;;
43413;SDS011;29013;49.676;8.606;2023-06-10T00:12:46;2.96;;;2.49;;
43413;SDS011;29013;49.676;8.606;2023-06-10T00:18:28;4.18;;;3.14;;
43413;SDS011;29013;49.676;8.606;2023-06-10T00:23:49;4.01;;;3.08;;
43413;SDS011;29013;49.676;8.606;2023-06-10T00:29:13;3.71;;;2.64;;
43413;SDS011;29013;49.676;8.606;2023-06-10T00:34:38;3.7;;;2.77;;
43413;SDS011;29013;49.676;8.606;2023-06-10T00:40:04;3.33;;;2.76;;
43413;SDS011;29013;49.676;8.606;2023-06-10T00:45:29;2.9;;;2.62;;
43413;SDS011;29013;49.676;8.606;2023-06-10T00:51:13;3.72;;;3.37;;
43413;SDS011;29013;49.676;8.606;2023-06-10T00:56:35;3.64;;;2.92;;
43413;SDS011;29013;49.676;8.606;2023-06-10T01:01:55;4.04;;;3.1;;
43413;SDS011;29013;49.676;8.606;2023-06-10T01:07:22;5.68;;;2.81;;
43413;SDS011;29013;49.676;8.606;2023-06-10T01:13:02;4.01;;;2.99;;
43413;SDS011;29013;49.676;8.606;2023-06-10T01:18:29;3.09;;;2.69;;
43413;SDS011;29013;49.676;8.606;2023-06-10T01:23:49;3.78;;;2.84;;
43413;SDS011;29013;49.676;8.606;2023-06-10T01:29:14;4.3;;;3.06;;
43413;SDS011;29013;49.676;8.606;2023-06-10T01:34:31;2.6;;;2.27;;
43413;SDS011;29013;49.676;8.606;2023-06-10T01:39:57;4.86;;;2.89;;
43413;SDS011;29013;49.676;8.606;2023-06-10T01:45:14;3.38;;;2.52;;
43413;SDS011;29013;49.676;8.606;2023-06-10T01:50:37;3.67;;;2.92;;
43413;SDS011;29013;49.676;8.606;2023-06-10T01:55:58;4.88;;;3.24;;
43413;SDS011;29013;49.676;8.606;2023-06-10T02:01:23;3.15;;;2.83;;
43413;SDS011;29013;49.676;8.606;2023-06-10T02:06:46;5.66;;;3.49;;
43413;SDS011;29013;49.676;8.606;2023-06-10T02:12:11;3.79;;;3.01;;
43413;SDS011;29013;49.676;8.606;2023-06-10T02:17:34;8.0;;;3.38;;
43413;SDS011;29013;49.676;8.606;2023-06-10T02:22:54;4.54;;;2.95;;
43413;SDS011;29013;49.676;8.606;2023-06-10T02:28:16;3.74;;;2.8;;
43413;SDS011;29013;49.676;8.606;2023-06-10T02:33:38;4.09;;;2.69;;
43413;SDS011;29013;49.676;8.606;2023-06-10T02:39:03;5.39;;;3.15;;
43413;SDS011;29013;49.676;8.606;2023-06-10T02:44:25;3.02;;;2.59;;
43413;SDS011;29013;49.676;8.606;2023-06-10T02:49:53;3.62;;;3.04;;
43413;SDS011;29013;49.676;8.606;2023-06-10T02:55:40;6.33;;;3.52;;
43413;SDS011;29013;49.676;8.606;2023-06-10T03:01:04;10.32;;;3.23;;
43413;SDS011;29013;49.676;8.606;2023-06-10T03:06:30;4.32;;;3.08;;
43413;SDS011;29013;49.676;8.606;2023-06-10T03:11:52;3.54;;;2.98;;
43413;SDS011;29013;49.676;8.606;2023-06-10T03:17:17;6.28;;;3.72;;
43413;SDS011;29013;49.676;8.606;2023-06-10T03:22:36;3.65;;;3.23;;
43413;SDS011;29013;49.676;8.606;2023-06-10T03:28:00;5.12;;;3.44;;
43413;SDS011;29013;49.676;8.606;2023-06-10T03:33:18;5.96;;;3.39;;
43413;SDS011;29013;49.676;8.606;2023-06-10T03:38:41;5.5;;;3.56;;
43413;SDS011;29013;49.676;8.606;2023-06-10T03:44:06;3.35;;;3.12;;
43413;SDS011;29013;49.676;8.606;2023-06-10T03:49:25;5.28;;;3.34;;
43413;SDS011;29013;49.676;8.606;2023-06-10T03:54:50;4.77;;;3.41;;
43413;SDS011;29013;49.676;8.606;2023-06-10T04:00:16;3.79;;;3.32;;
43413;SDS011;29013;49.676;8.606;2023-06-10T04:05:41;4.02;;;3.42;;
43413;SDS011;29013;49.676;8.606;2023-06-10T04:11:06;3.8;;;3.09;;
43413;SDS011;29013;49.676;8.606;2023-06-10T04:16:29;3.7;;;3.32;;
43413;SDS011;29013;49.676;8.606;2023-06-10T04:21:50;6.67;;;3.51;;
43413;SDS011;29013;49.676;8.606;2023-06-10T04:27:14;4.2;;;3.3;;
43413;SDS011;29013;49.676;8.606;2023-06-10T04:32:37;5.44;;;3.33;;
43413;SDS011;29013;49.676;8.606;2023-06-10T04:37:59;6.41;;;3.49;;
43413;SDS011;29013;49.676;8.606;2023-06-10T04:43:23;4.17;;;3.42;;
43413;SDS011;29013;49.676;8.606;2023-06-10T04:48:46;5.77;;;3.63;;
43413;SDS011;29013;49.676;8.606;2023-06-10T04:54:12;5.53;;;3.51;;
43413;SDS011;29013;49.676;8.606;2023-06-10T04:59:38;4.76;;;3.44;;
43413;SDS011;29013;49.676;8.606;2023-06-10T05:05:00;3.86;;;3.28;;
43413;SDS011;29013;49.676;8.606;2023-06-10T05:10:19;4.1;;;3.32;;
43413;SDS011;29013;49.676;8.606;2023-06-10T05:15:43;4.49;;;3.34;;
43413;SDS011;29013;49.676;8.606;2023-06-10T05:21:11;4.47;;;3.29;;
43413;SDS011;29013;49.676;8.606;2023-06-10T05:26:35;4.32;;;3.09;;
43413;SDS011;29013;49.676;8.606;2023-06-10T05:31:58;5.57;;;4.1;;
43413;SDS011;29013;49.676;8.606;2023-06-10T05:37:18;5.68;;;3.32;;
43413;SDS011;29013;49.676;8.606;2023-06-10T05:42:42;5.06;;;3.36;;
43413;SDS011;29013;49.676;8.606;2023-06-10T05:48:05;5.11;;;3.15;;
43413;SDS011;29013;49.676;8.606;2023-06-10T05:53:29;3.8;;;2.86;;
43413;SDS011;29013;49.676;8.606;2023-06-10T05:58:58;3.38;;;3.02;;
43413;SDS011;29013;49.676;8.606;2023-06-10T06:04:21;4.78;;;3.2;;
43413;SDS011;29013;49.676;8.606;2023-06-10T06:09:47;4.85;;;3.27;;
43413;SDS011;29013;49.676;8.606;2023-06-10T06:15:12;4.67;;;3.29;;
43413;SDS011;29013;49.676;8.606;2023-06-10T06:20:58;3.74;;;3.09;;
43413;SDS011;29013;49.676;8.606;2023-06-10T06:26:22;3.9;;;2.92;;
43413;SDS011;29013;49.676;8.606;2023-06-10T06:32:14;3.94;;;3.15;;
43413;SDS011;29013;49.676;8.606;2023-06-10T06:37:37;4.71;;;3.03;;
43413;SDS011;29013;49.676;8.606;2023-06-10T06:43:03;3.72;;;2.92;;
43413;SDS011;29013;49.676;8.606;2023-06-10T06:48:24;3.19;;;2.94;;
43413;SDS011;29013;49.676;8.606;2023-06-10T06:53:49;3.93;;;3.21;;
43413;SDS011;29013;49.676;8.606;2023-06-10T06:59:07;3.49;;;3.0;;
43413;SDS011;29013;49.676;8.606;2023-06-10T07:04:30;3.0;;;2.86;;
43413;SDS011;29013;49.676;8.606;2023-06-10T07:09:55;3.46;;;2.72;;
43413;SDS011;29013;49.676;8.606;2023-06-10T07:15:20;3.46;;;2.93;;
43413;SDS011;29013;49.676;8.606;2023-06-10T07:21:36;4.5;;;3.4;;
43413;SDS011;29013;49.676;8.606;2023-06-10T07:26:58;3.74;;;3.02;;
43413;SDS011;29013;49.676;8.606;2023-06-10T07:32:24;5.51;;;3.28;;
43413;SDS011;29013;49.676;8.606;2023-06-10T07:37:49;3.6;;;2.92;;
43413;SDS011;29013;49.676;8.606;2023-06-10T07:43:12;4.65;;;2.94;;
43413;SDS011;29013;49.676;8.606;2023-06-10T07:48:31;4.09;;;2.96;;
43413;SDS011;29013;49.676;8.606;2023-06-10T07:53:56;3.6;;;2.62;;
43413;SDS011;29013;49.676;8.606;2023-06-10T07:59:18;3.67;;;3.07;;
43413;SDS011;29013;49.676;8.606;2023-06-10T08:04:42;3.42;;;2.58;;
43413;SDS011;29013;49.676;8.606;2023-06-10T08:10:08;3.44;;;2.67;;
43413;SDS011;29013;49.676;8.606;2023-06-10T08:15:33;3.21;;;2.53;;
43413;SDS011;29013;49.676;8.606;2023-06-10T08:20:56;3.45;;;2.78;;
43413;SDS011;29013;49.676;8.606;2023-06-10T08:26:20;7.99;;;2.67;;
43413;SDS011;29013;49.676;8.606;2023-06-10T08:31:38;3.19;;;2.77;;
43413;SDS011;29013;49.676;8.606;2023-06-10T08:36:57;3.36;;;2.74;;
43413;SDS011;29013;49.676;8.606;2023-06-10T08:42:22;2.7;;;2.62;;
43413;SDS011;29013;49.676;8.606;2023-06-10T08:47:46;3.92;;;3.05;;
43413;SDS011;29013;49.676;8.606;2023-06-10T08:53:10;4.74;;;2.52;;
43413;SDS011;29013;49.676;8.606;2023-06-10T08:58:32;2.9;;;2.61;;
43413;SDS011;29013;49.676;8.606;2023-06-10T09:03:56;6.54;;;2.91;;
43413;SDS011;29013;49.676;8.606;2023-06-10T09:09:21;3.26;;;2.55;;
43413;SDS011;29013;49.676;8.606;2023-06-10T09:15:08;6.08;;;2.91;;
43413;SDS011;29013;49.676;8.606;2023-06-10T09:20:55;5.51;;;3.39;;
43413;SDS011;29013;49.676;8.606;2023-06-10T09:26:18;4.94;;;2.94;;
43413;SDS011;29013;49.676;8.606;2023-06-10T09:31:40;3.93;;;3.03;;
43413;SDS011;29013;49.676;8.606;2023-06-10T09:36:59;3.67;;;2.69;;
43413;SDS011;29013;49.676;8.606;2023-06-10T09:42:24;4.06;;;2.96;;
43413;SDS011;29013;49.676;8.606;2023-06-10T09:47:50;6.42;;;2.66;;
43413;SDS011;29013;49.676;8.606;2023-06-10T09:53:16;3.28;;;2.79;;
43413;SDS011;29013;49.676;8.606;2023-06-10T09:58:38;2.49;;;1.99;;
43413;SDS011;29013;49.676;8.606;2023-06-10T10:04:00;4.16;;;2.34;;
43413;SDS011;29013;49.676;8.606;2023-06-10T10:09:25;4.62;;;2.44;;
43413;SDS011;29013;49.676;8.606;2023-06-10T10:14:48;3.59;;;2.43;;
43413;SDS011;29013;49.676;8.606;2023-06-10T10:20:12;3.0;;;2.32;;
43413;SDS011;29013;49.676;8.606;2023-06-10T10:25:34;2.27;;;2.03;;
43413;SDS011;29013;49.676;8.606;2023-06-10T10:30:59;3.2;;;2.44;;
43413;SDS011;29013;49.676;8.606;2023-06-10T10:36:22;2.94;;;1.98;;
43413;SDS011;29013;49.676;8.606;2023-06-10T10:41:45;2.74;;;2.3;;
43413;SDS011;29013;49.676;8.606;2023-06-10T10:47:08;3.88;;;2.21;;
43413;SDS011;29013;49.676;8.606;2023-06-10T10:52:48;3.04;;;2.18;;
43413;SDS011;29013;49.676;8.606;2023-06-10T10:58:02;3.01;;;2.39;;
43413;SDS011;29013;49.676;8.606;2023-06-10T11:03:27;3.95;;;2.39;;
43413;SDS011;29013;49.676;8.606;2023-06-10T11:08:51;2.33;;;2.22;;
43413;SDS011;29013;49.676;8.606;2023-06-10T11:14:15;3.46;;;2.18;;
43413;SDS011;29013;49.676;8.606;2023-06-10T11:19:40;2.46;;;2.02;;
43413;SDS011;29013;49.676;8.606;2023-06-10T11:25:04;2.14;;;1.95;;
43413;SDS011;29013;49.676;8.606;2023-06-10T11:30:30;3.11;;;1.97;;
43413;SDS011;29013;49.676;8.606;2023-06-10T11:35:57;2.74;;;2.06;;
43413;SDS011;29013;49.676;8.606;2023-06-10T11:41:19;2.19;;;1.65;;
43413;SDS011;29013;49.676;8.606;2023-06-10T11:46:44;5.35;;;1.87;;
43413;SDS011;29013;49.676;8.606;2023-06-10T11:52:03;2.32;;;1.67;;
43413;SDS011;29013;49.676;8.606;2023-06-10T11:57:22;5.01;;;2.29;;
43413;SDS011;29013;49.676;8.606;2023-06-10T12:02:42;2.26;;;1.97;;
43413;SDS011;29013;49.676;8.606;2023-06-10T12:08:09;2.46;;;2.06;;
43413;SDS011;29013;49.676;8.606;2023-06-10T12:13:30;2.63;;;1.81;;
43413;SDS011;29013;49.676;8.606;2023-06-10T12:18:50;2.1;;;1.86;;
43413;SDS011;29013;49.676;8.606;2023-06-10T12:24:11;3.63;;;1.76;;
43413;SDS011;29013;49.676;8.606;2023-06-10T12:29:36;2.57;;;1.7;;
43413;SDS011;29013;49.676;8.606;2023-06-10T12:35:04;2.1;;;1.69;;
43413;SDS011;29013;49.676;8.606;2023-06-10T12:40:29;4.19;;;1.68;;
43413;SDS011;29013;49.676;8.606;2023-06-10T12:45:53;2.85;;;1.6;;
43413;SDS011;29013;49.676;8.606;2023-06-10T12:51:18;2.28;;;1.65;;
43413;SDS011;29013;49.676;8.606;2023-06-10T12:56:40;2.04;;;1.64;;
43413;SDS011;29013;49.676;8.606;2023-06-10T13:02:02;2.39;;;1.27;;
43413;SDS011;29013;49.676;8.606;2023-06-10T13:07:27;2.41;;;1.61;;
43413;SDS011;29013;49.676;8.606;2023-06-10T13:12:52;1.91;;;1.58;;
43413;SDS011;29013;49.676;8.606;2023-06-10T13:18:18;2.18;;;1.54;;
43413;SDS011;29013;49.676;8.606;2023-06-10T13:23:45;1.88;;;1.56;;
43413;SDS011;29013;49.676;8.606;2023-06-10T13:29:10;2.0;;;1.55;;
43413;SDS011;29013;49.676;8.606;2023-06-10T13:34:53;2.86;;;1.72;;
43413;SDS011;29013;49.676;8.606;2023-06-10T13:40:17;1.54;;;1.42;;
43413;SDS011;29013;49.676;8.606;2023-06-10T13:45:43;2.62;;;1.47;;
43413;SDS011;29013;49.676;8.606;2023-06-10T13:51:05;1.64;;;1.36;;
43413;SDS011;29013;49.676;8.606;2023-06-10T13:56:30;1.86;;;1.53;;
43413;SDS011;29013;49.676;8.606;2023-06-10T14:01:56;2.69;;;1.62;;
43413;SDS011;29013;49.676;8.606;2023-06-10T14:07:20;4.98;;;1.72;;
43413;SDS011;29013;49.676;8.606;2023-06-10T14:12:46;2.03;;;1.57;;
43413;SDS011;29013;49.676;8.606;2023-06-10T14:18:11;1.69;;;1.42;;
43413;SDS011;29013;49.676;8.606;2023-06-10T14:23:33;2.32;;;1.68;;
43413;SDS011;29013;49.676;8.606;2023-06-10T14:28:58;3.51;;;1.74;;
43413;SDS011;29013;49.676;8.606;2023-06-10T14:34:23;3.29;;;1.97;;
43413;SDS011;29013;49.676;8.606;2023-06-10T14:39:48;2.12;;;1.62;;
43413;SDS011;29013;49.676;8.606;2023-06-10T14:45:11;2.67;;;1.8;;
43413;SDS011;29013;49.676;8.606;2023-06-10T14:50:36;2.77;;;1.76;;
43413;SDS011;29013;49.676;8.606;2023-06-10T14:55:58;2.5;;;2.15;;
43413;SDS011;29013;49.676;8.606;2023-06-10T15:01:19;2.37;;;1.69;;
43413;SDS011;29013;49.676;8.606;2023-06-10T15:06:42;3.13;;;2.09;;
43413;SDS011;29013;49.676;8.606;2023-06-10T15:12:09;2.46;;;1.7;;
43413;SDS011;29013;49.676;8.606;2023-06-10T15:17:27;2.05;;;1.52;;
43413;SDS011;29013;49.676;8.606;2023-06-10T15:22:54;4.83;;;1.91;;
43413;SDS011;29013;49.676;8.606;2023-06-10T15:28:30;2.52;;;2.03;;
43413;SDS011;29013;49.676;8.606;2023-06-10T15:33:55;4.97;;;1.64;;
43413;SDS011;29013;49.676;8.606;2023-06-10T15:39:20;2.97;;;2.1;;
43413;SDS011;29013;49.676;8.606;2023-06-10T15:45:08;1.85;;;1.67;;
43413;SDS011;29013;49.676;8.606;2023-06-10T15:50:52;2.4;;;1.94;;
43413;SDS011;29013;49.676;8.606;2023-06-10T15:56:16;3.32;;;2.78;;
43413;SDS011;29013;49.676;8.606;2023-06-10T16:01:40;2.47;;;1.71;;
43413;SDS011;29013;49.676;8.606;2023-06-10T16:07:32;4.16;;;2.15;;
43413;SDS011;29013;49.676;8.606;2023-06-10T16:12:53;2.65;;;1.7;;
43413;SDS011;29013;49.676;8.606;2023-06-10T16:18:40;3.46;;;1.87;;
43413;SDS011;29013;49.676;8.606;2023-06-10T16:24:02;2.6;;;2.0;;
43413;SDS011;29013;49.676;8.606;2023-06-10T16:29:27;2.94;;;1.59;;
43413;SDS011;29013;49.676;8.606;2023-06-10T16:34:53;1.94;;;1.69;;
43413;SDS011;29013;49.676;8.606;2023-06-10T16:40:22;1.93;;;1.62;;
43413;SDS011;29013;49.676;8.606;2023-06-10T16:45:47;2.56;;;1.95;;
43413;SDS011;29013;49.676;8.606;2023-06-10T16:51:13;2.27;;;1.61;;
43413;SDS011;29013;49.676;8.606;2023-06-10T16:56:36;4.05;;;1.55;;
43413;SDS011;29013;49.676;8.606;2023-06-10T17:02:02;2.86;;;1.38;;
43413;SDS011;29013;49.676;8.606;2023-06-10T17:07:27;2.02;;;1.47;;
43413;SDS011;29013;49.676;8.606;2023-06-10T17:12:50;2.49;;;1.6;;
43413;SDS011;29013;49.676;8.606;2023-06-10T17:18:15;3.85;;;1.77;;
43413;SDS011;29013;49.676;8.606;2023-06-10T17:23:41;3.04;;;1.56;;
43413;SDS011;29013;49.676;8.606;2023-06-10T17:29:08;1.72;;;1.57;;
43413;SDS011;29013;49.676;8.606;2023-06-10T17:34:31;2.04;;;1.51;;
43413;SDS011;29013;49.676;8.606;2023-06-10T17:39:57;1.5;;;1.3;;
43413;SDS011;29013;49.676;8.606;2023-06-10T17:45:22;1.87;;;1.52;;
43413;SDS011;29013;49.676;8.606;2023-06-10T17:51:01;2.09;;;1.55;;
43413;SDS011;29013;49.676;8.606;2023-06-10T17:56:20;1.33;;;1.24;;
43413;SDS011;29013;49.676;8.606;2023-06-10T18:01:59;4.66;;;1.66;;
43413;SDS011;29013;49.676;8.606;2023-06-10T18:07:22;1.71;;;1.39;;
43413;SDS011;29013;49.676;8.606;2023-06-10T18:12:42;2.76;;;1.42;;
43413;SDS011;29013;49.676;8.606;2023-06-10T18:18:02;1.94;;;1.81;;
43413;SDS011;29013;49.676;8.606;2023-06-10T18:23:22;4.72;;;1.79;;
43413;SDS011;29013;49.676;8.606;2023-06-10T18:28:44;3.17;;;1.78;;
43413;SDS011;29013;49.676;8.606;2023-06-10T18:34:05;3.3;;;1.83;;
43413;SDS011;29013;49.676;8.606;2023-06-10T18:39:28;3.95;;;1.78;;
43413;SDS011;29013;49.676;8.606;2023-06-10T18:44:47;4.99;;;1.96;;
43413;SDS011;29013;49.676;8.606;2023-06-10T18:50:09;2.23;;;1.78;;
43413;SDS011;29013;49.676;8.606;2023-06-10T18:55:29;3.29;;;2.03;;
43413;SDS011;29013;49.676;8.606;2023-06-10T19:00:48;2.21;;;1.76;;
43413;SDS011;29013;49.676;8.606;2023-06-10T19:06:11;2.89;;;2.24;;
43413;SDS011;29013;49.676;8.606;2023-06-10T19:11:35;2.84;;;2.03;;
43413;SDS011;29013;49.676;8.606;2023-06-10T19:16:59;2.89;;;2.26;;
43413;SDS011;29013;49.676;8.606;2023-06-10T19:22:24;3.27;;;2.24;;
43413;SDS011;29013;49.676;8.606;2023-06-10T19:27:48;3.29;;;2.36;;
43413;SDS011;29013;49.676;8.606;2023-06-10T19:33:11;2.19;;;1.88;;
43413;SDS011;29013;49.676;8.606;2023-06-10T19:38:34;3.5;;;2.1;;
43413;SDS011;29013;49.676;8.606;2023-06-10T19:43:56;3.58;;;2.52;;
43413;SDS011;29013;49.676;8.606;2023-06-10T19:49:22;2.45;;;2.22;;
43413;SDS011;29013;49.676;8.606;2023-06-10T19:54:46;4.01;;;2.51;;
43413;SDS011;29013;49.676;8.606;2023-06-10T20:00:09;13.79;;;4.62;;
43413;SDS011;29013;49.676;8.606;2023-06-10T20:05:31;4.48;;;2.41;;
43413;SDS011;29013;49.676;8.606;2023-06-10T20:10:54;3.22;;;2.47;;
43413;SDS011;29013;49.676;8.606;2023-06-10T20:16:16;3.77;;;2.59;;
43413;SDS011;29013;49.676;8.606;2023-06-10T20:21:35;3.38;;;2.23;;
43413;SDS011;29013;49.676;8.606;2023-06-10T20:27:01;3.6;;;2.85;;
43413;SDS011;29013;49.676;8.606;2023-06-10T20:32:47;4.63;;;2.63;;
43413;SDS011;29013;49.676;8.606;2023-06-10T20:38:11;3.32;;;2.56;;
43413;SDS011;29013;49.676;8.606;2023-06-10T20:43:35;3.79;;;2.3;;
43413;SDS011;29013;49.676;8.606;2023-06-10T20:49:01;3.6;;;2.47;;
43413;SDS011;29013;49.676;8.606;2023-06-10T20:54:24;3.69;;;2.57;;
43413;SDS011;29013;49.676;8.606;2023-06-10T20:59:49;6.59;;;2.71;;
43413;SDS011;29013;49.676;8.606;2023-06-10T21:05:14;3.48;;;2.62;;
43413;SDS011;29013;49.676;8.606;2023-06-10T21:10:41;3.92;;;2.57;;
43413;SDS011;29013;49.676;8.606;2023-06-10T21:16:05;3.8;;;2.51;;
43413;SDS011;29013;49.676;8.606;2023-06-10T21:21:27;3.65;;;2.92;;
43413;SDS011;29013;49.676;8.606;2023-06-10T21:27:09;3.75;;;3.06;;
43413;SDS011;29013;49.676;8.606;2023-06-10T21:32:31;4.0;;;2.59;;
43413;SDS011;29013;49.676;8.606;2023-06-10T21:37:53;3.87;;;2.77;;
43413;SDS011;29013;49.676;8.606;2023-06-10T21:43:16;3.41;;;2.55;;
43413;SDS011;29013;49.676;8.606;2023-06-10T21:48:38;3.88;;;3.11;;
43413;SDS011;29013;49.676;8.606;2023-06-10T21:53:58;2.92;;;2.81;;
43413;SDS011;29013;49.676;8.606;2023-06-10T21:59:23;3.15;;;2.6;;
43413;SDS011;29013;49.676;8.606;2023-06-10T22:05:01;5.77;;;3.27;;
43413;SDS011;29013;49.676;8.606;2023-06-10T22:10:40;4.55;;;3.37;;
43413;SDS011;29013;49.676;8.606;2023-06-10T22:16:03;2.9;;;2.63;;
43413;SDS011;29013;49.676;8.606;2023-06-10T22:21:28;3.68;;;2.97;;
43413;SDS011;29013;49.676;8.606;2023-06-10T22:26:54;3.97;;;3.02;;
43413;SDS011;29013;49.676;8.606;2023-06-10T22:32:12;4.02;;;2.33;;
43413;SDS011;29013;49.676;8.606;2023-06-10T22:37:37;4.2;;;3.01;;
43413;SDS011;29013;49.676;8.606;2023-06-10T22:43:01;3.25;;;2.66;;
43413;SDS011;29013;49.676;8.606;2023-06-10T22:48:26;6.16;;;2.86;;
43413;SDS011;29013;49.676;8.606;2023-06-10T22:54:16;4.1;;;2.99;;
43413;SDS011;29013;49.676;8.606;2023-06-10T22:59:40;3.22;;;2.71;;
43413;SDS011;29013;49.676;8.606;2023-06-10T23:05:00;3.67;;;2.68;;
43413;SDS011;29013;49.676;8.606;2023-06-10T23:10:25;4.2;;;2.55;;
43413;SDS011;29013;49.676;8.606;2023-06-10T23:16:08;3.82;;;3.21;;
43413;SDS011;29013;49.676;8.606;2023-06-10T23:21:32;2.76;;;2.32;;
43413;SDS011;29013;49.676;8.606;2023-06-10T23:26:54;3.44;;;2.76;;
43413;SDS011;29013;49.676;8.606;2023-06-10T23:32:14;4.44;;;3.24;;
43413;SDS011;29013;49.676;8.606;2023-06-10T23:37:39;4.13;;;3.28;;
43413;SDS011;29013;49.676;8.606;2023-06-10T23:43:04;4.56;;;2.65;;
43413;SDS011;29013;49.676;8.606;2023-06-10T23:48:29;4.59;;;2.8;;
43413;SDS011;29013;49.676;8.606;2023-06-10T23:54:08;3.17;;;2.78;;
43413;SDS011;29013;49.676;8.606;2023-06-10T23:59:32;3.88;;;2.69;;
